createdAt,value
2018-10-05T00:00:34.870Z,99.30
2018-10-05T00:01:34.857Z,99.30
2018-10-05T00:02:34.847Z,99.14
2018-10-05T00:03:34.850Z,99.04
2018-10-05T00:04:34.824Z,99.34
2018-10-05T00:05:34.826Z,99.04
2018-10-05T00:06:34.829Z,99.14
2018-10-05T00:07:34.798Z,99.39
2018-10-05T00:08:34.799Z,99.24
2018-10-05T00:09:34.775Z,99.18
2018-10-05T00:10:34.761Z,99.39
2018-10-05T00:11:34.752Z,99.49
2018-10-05T00:12:34.823Z,99.55
2018-10-05T00:13:34.744Z,99.39
2018-10-05T00:14:34.720Z,99.60
2018-10-05T00:15:34.709Z,99.60
2018-10-05T00:16:34.697Z,99.49
2018-10-05T00:17:34.692Z,99.99
2018-10-05T00:18:34.712Z,99.99
2018-10-05T00:19:34.666Z,99.99
2018-10-05T00:20:34.728Z,99.99
2018-10-05T00:21:34.645Z,99.99
2018-10-05T00:22:34.636Z,99.99
2018-10-05T00:23:34.623Z,99.99
2018-10-05T00:24:34.650Z,99.99
2018-10-05T00:25:34.603Z,99.99
2018-10-05T00:26:34.593Z,99.99
2018-10-05T00:27:34.581Z,99.99
2018-10-05T00:28:34.567Z,99.99
2018-10-05T00:29:34.572Z,99.99
2018-10-05T00:30:34.558Z,99.99
2018-10-05T00:31:34.541Z,99.96
2018-10-05T00:32:34.600Z,99.96
2018-10-05T00:33:34.526Z,99.96
2018-10-05T00:34:34.521Z,99.99
2018-10-05T00:35:34.494Z,99.99
2018-10-05T00:36:34.497Z,99.99
2018-10-05T00:37:34.474Z,99.99
2018-10-05T00:38:34.474Z,99.99
2018-10-05T00:39:34.468Z,99.99
2018-10-05T00:40:34.440Z,99.99
2018-10-05T00:41:34.429Z,99.99
2018-10-05T00:42:34.439Z,99.99
2018-10-05T00:43:34.409Z,99.99
2018-10-05T00:44:34.411Z,99.99
2018-10-05T00:45:34.409Z,99.77
2018-10-05T00:46:34.377Z,99.57
2018-10-05T00:47:34.366Z,98.85
2018-10-05T00:48:34.381Z,97.88
2018-10-05T00:49:34.357Z,98.44
2018-10-05T00:50:34.334Z,98.44
2018-10-05T00:51:34.348Z,98.38
2018-10-05T00:52:34.313Z,97.56
2018-10-05T00:53:34.406Z,98.33
2018-10-05T00:54:34.323Z,97.44
2018-10-05T00:55:34.284Z,97.08
2018-10-05T00:56:34.270Z,96.25
2018-10-05T00:57:34.262Z,96.50
2018-10-05T00:58:34.248Z,96.66
2018-10-05T00:59:34.255Z,96.28
2018-10-05T01:00:34.256Z,96.91
2018-10-05T01:01:34.252Z,97.01
2018-10-05T01:02:34.207Z,97.16
2018-10-05T01:03:34.198Z,97.67
2018-10-05T01:04:34.197Z,97.20
2018-10-05T01:05:34.177Z,96.83
2018-10-05T01:06:34.177Z,97.61
2018-10-05T01:07:34.154Z,97.55
2018-10-05T01:08:34.141Z,98.28
2018-10-05T01:09:34.149Z,98.18
2018-10-05T01:10:34.119Z,98.28
2018-10-05T01:11:34.272Z,98.53
2018-10-05T01:12:34.116Z,98.74
2018-10-05T01:13:34.089Z,99.21
2018-10-05T01:14:34.093Z,98.90
2018-10-05T01:15:34.069Z,98.94
2018-10-05T01:16:34.057Z,99.05
2018-10-05T01:17:34.047Z,99.21
2018-10-05T01:18:34.050Z,98.90
2018-10-05T01:19:34.038Z,98.43
2018-10-05T01:20:34.012Z,99.05
2018-10-05T01:21:34.003Z,99.09
2018-10-05T01:22:33.992Z,99.09
2018-10-05T01:23:33.983Z,99.09
2018-10-05T01:24:34.002Z,99.30
2018-10-05T01:25:33.961Z,98.88
2018-10-05T01:26:33.949Z,99.30
2018-10-05T01:27:33.939Z,99.40
2018-10-05T01:28:33.928Z,99.30
2018-10-05T01:29:33.932Z,98.99
2018-10-05T01:30:33.929Z,99.04
2018-10-05T01:31:33.896Z,99.04
2018-10-05T01:32:33.883Z,99.34
2018-10-05T01:33:33.873Z,99.55
2018-10-05T01:34:33.878Z,99.24
2018-10-05T01:35:33.852Z,99.44
2018-10-05T01:36:33.862Z,99.44
2018-10-05T01:37:33.830Z,99.24
2018-10-05T01:38:33.820Z,99.34
2018-10-05T01:39:33.829Z,99.70
2018-10-05T01:40:33.801Z,99.39
2018-10-05T01:41:33.790Z,99.18
2018-10-05T01:42:33.796Z,99.60
2018-10-05T01:43:33.766Z,99.54
2018-10-05T01:44:33.771Z,99.91
2018-10-05T01:45:33.752Z,99.64
2018-10-05T01:46:33.735Z,99.99
2018-10-05T01:47:33.725Z,99.99
2018-10-05T01:48:33.728Z,99.99
2018-10-05T01:49:33.715Z,99.80
2018-10-05T01:50:33.693Z,99.99
2018-10-05T01:51:33.684Z,99.99
2018-10-05T01:52:33.677Z,99.99
2018-10-05T01:53:33.659Z,99.99
2018-10-05T01:54:33.675Z,99.99
2018-10-05T01:55:33.654Z,99.99
2018-10-05T01:56:33.630Z,99.99
2018-10-05T01:57:33.616Z,99.99
2018-10-05T01:58:33.607Z,99.99
2018-10-05T01:59:33.626Z,99.99
2018-10-05T02:00:33.587Z,99.96
2018-10-05T02:01:33.591Z,99.99
2018-10-05T02:02:33.611Z,99.99
2018-10-05T02:03:33.595Z,99.99
2018-10-05T02:04:33.542Z,99.99
2018-10-05T02:05:33.545Z,99.99
2018-10-05T02:06:33.521Z,99.99
2018-10-05T02:07:33.525Z,99.99
2018-10-05T02:08:33.499Z,99.99
2018-10-05T02:09:33.490Z,99.99
2018-10-05T02:10:33.493Z,99.99
2018-10-05T02:11:33.468Z,99.99
2018-10-05T02:12:33.494Z,99.99
2018-10-05T02:13:33.446Z,99.99
2018-10-05T02:14:33.436Z,99.99
2018-10-05T02:15:33.439Z,99.99
2018-10-05T02:16:33.416Z,99.99
2018-10-05T02:17:33.405Z,99.99
2018-10-05T02:18:33.414Z,99.99
2018-10-05T02:19:33.381Z,99.99
2018-10-05T02:20:33.385Z,99.99
2018-10-05T02:21:33.363Z,99.99
2018-10-05T02:22:33.371Z,99.99
2018-10-05T02:23:33.341Z,99.99
2018-10-05T02:24:33.340Z,99.99
2018-10-05T02:25:33.356Z,99.99
2018-10-05T02:26:33.309Z,99.99
2018-10-05T02:27:33.353Z,99.99
2018-10-05T02:28:33.287Z,99.99
2018-10-05T02:29:33.276Z,99.99
2018-10-05T02:30:33.282Z,99.99
2018-10-05T02:31:33.270Z,99.99
2018-10-05T02:32:33.266Z,99.99
2018-10-05T02:33:33.238Z,99.99
2018-10-05T02:34:33.228Z,99.99
2018-10-05T02:35:33.227Z,99.99
2018-10-05T02:36:33.203Z,99.99
2018-10-05T02:37:33.221Z,99.99
2018-10-05T02:38:33.184Z,99.99
2018-10-05T02:39:33.177Z,99.99
2018-10-05T02:40:33.176Z,99.99
2018-10-05T02:41:33.193Z,99.99
2018-10-05T02:42:33.141Z,99.99
2018-10-05T02:43:33.148Z,99.99
2018-10-05T02:44:33.118Z,99.99
2018-10-05T02:45:33.122Z,99.99
2018-10-05T02:46:33.099Z,99.99
2018-10-05T02:47:33.087Z,99.99
2018-10-05T02:48:33.079Z,99.99
2018-10-05T02:49:33.090Z,99.99
2018-10-05T02:50:33.069Z,99.99
2018-10-05T02:51:33.045Z,99.99
2018-10-05T02:52:33.034Z,99.99
2018-10-05T02:53:33.029Z,99.99
2018-10-05T02:54:33.013Z,99.99
2018-10-05T02:55:33.038Z,99.99
2018-10-05T02:56:32.993Z,99.99
2018-10-05T02:57:32.981Z,99.99
2018-10-05T02:58:32.979Z,99.99
2018-10-05T02:59:32.964Z,99.99
2018-10-05T03:00:32.967Z,99.99
2018-10-05T03:01:32.953Z,99.99
2018-10-05T03:02:32.928Z,99.99
2018-10-05T03:03:32.916Z,99.99
2018-10-05T03:04:32.909Z,99.99
2018-10-05T03:05:32.920Z,99.99
2018-10-05T03:06:32.885Z,99.99
2018-10-05T03:07:32.905Z,99.99
2018-10-05T03:08:32.864Z,99.99
2018-10-05T03:09:32.854Z,99.99
2018-10-05T03:10:32.845Z,99.60
2018-10-05T03:11:32.846Z,98.74
2018-10-05T03:12:32.822Z,98.74
2018-10-05T03:13:32.826Z,98.43
2018-10-05T03:14:32.805Z,98.12
2018-10-05T03:15:32.788Z,97.36
2018-10-05T03:16:32.791Z,97.05
2018-10-05T03:17:32.767Z,95.81
2018-10-05T03:18:32.755Z,95.96
2018-10-05T03:19:32.761Z,95.45
2018-10-05T03:20:32.741Z,95.24
2018-10-05T03:21:32.739Z,95.08
2018-10-05T03:22:32.715Z,95.28
2018-10-05T03:23:32.702Z,95.08
2018-10-05T03:24:32.694Z,94.92
2018-10-05T03:25:32.704Z,95.12
2018-10-05T03:26:32.688Z,94.81
2018-10-05T03:27:32.661Z,95.37
2018-10-05T03:28:32.649Z,95.62
2018-10-05T03:29:32.638Z,95.62
2018-10-05T03:30:32.635Z,96.18
2018-10-05T03:31:32.652Z,96.28
2018-10-05T03:32:32.607Z,96.70
2018-10-05T03:33:32.599Z,96.44
2018-10-05T03:34:32.586Z,96.84
2018-10-05T03:35:32.573Z,96.99
2018-10-05T03:36:32.579Z,96.73
2018-10-05T03:37:32.580Z,96.52
2018-10-05T03:38:32.542Z,96.36
2018-10-05T03:39:32.530Z,95.57
2018-10-05T03:40:32.522Z,95.17
2018-10-05T03:41:32.524Z,95.83
2018-10-05T03:42:32.500Z,96.66
2018-10-05T03:43:32.499Z,97.59
2018-10-05T03:44:32.477Z,97.59
2018-10-05T03:45:32.466Z,97.74
2018-10-05T03:46:32.473Z,97.53
2018-10-05T03:47:32.446Z,97.88
2018-10-05T03:48:32.434Z,97.88
2018-10-05T03:49:32.455Z,98.46
2018-10-05T03:50:32.423Z,98.61
2018-10-05T03:51:32.419Z,98.40
2018-10-05T03:52:32.393Z,98.92
2018-10-05T03:53:32.382Z,98.71
2018-10-05T03:54:32.370Z,98.50
2018-10-05T03:55:32.390Z,99.02
2018-10-05T03:56:32.381Z,99.23
2018-10-05T03:57:32.338Z,98.55
2018-10-05T03:58:32.328Z,99.33
2018-10-05T03:59:32.322Z,99.33
2018-10-05T04:00:32.343Z,99.23
2018-10-05T04:01:32.320Z,99.13
2018-10-05T04:02:32.302Z,99.17
2018-10-05T04:03:32.276Z,99.48
2018-10-05T04:04:32.269Z,99.74
2018-10-05T04:05:32.260Z,99.58
2018-10-05T04:06:32.248Z,99.64
2018-10-05T04:07:32.275Z,99.74
2018-10-05T04:08:32.228Z,99.69
2018-10-05T04:09:32.216Z,99.58
2018-10-05T04:10:32.210Z,99.58
2018-10-05T04:11:32.194Z,99.58
2018-10-05T04:12:32.196Z,99.58
2018-10-05T04:13:32.203Z,99.69
2018-10-05T04:14:32.161Z,99.95
2018-10-05T04:15:32.152Z,99.74
2018-10-05T04:16:32.141Z,99.90
2018-10-05T04:17:32.148Z,99.99
2018-10-05T04:18:32.119Z,99.90
2018-10-05T04:19:32.142Z,99.69
2018-10-05T04:20:32.103Z,99.99
2018-10-05T04:21:32.093Z,99.99
2018-10-05T04:22:32.094Z,99.99
2018-10-05T04:23:32.068Z,99.99
2018-10-05T04:24:32.056Z,99.99
2018-10-05T04:25:32.072Z,99.99
2018-10-05T04:26:32.038Z,99.99
2018-10-05T04:27:32.042Z,99.99
2018-10-05T04:28:32.016Z,99.99
2018-10-05T04:29:32.006Z,99.99
2018-10-05T04:30:31.995Z,99.99
2018-10-05T04:31:32.004Z,99.99
2018-10-05T04:32:32.000Z,99.99
2018-10-05T04:33:31.964Z,99.99
2018-10-05T04:34:31.953Z,99.99
2018-10-05T04:35:32.006Z,99.99
2018-10-05T04:36:31.935Z,99.99
2018-10-05T04:37:31.953Z,99.99
2018-10-05T04:38:31.913Z,99.99
2018-10-05T04:39:31.901Z,99.99
2018-10-05T04:40:31.890Z,99.99
2018-10-05T04:41:31.878Z,99.99
2018-10-05T04:42:31.895Z,99.99
2018-10-05T04:43:31.888Z,99.99
2018-10-05T04:44:31.847Z,99.99
2018-10-05T04:45:31.839Z,99.99
2018-10-05T04:46:31.872Z,99.99
2018-10-05T04:47:31.831Z,99.99
2018-10-05T04:48:31.806Z,99.99
2018-10-05T04:49:31.844Z,99.99
2018-10-05T04:50:31.785Z,99.99
2018-10-05T04:51:31.775Z,99.99
2018-10-05T04:52:31.787Z,99.99
2018-10-05T04:53:31.752Z,99.99
2018-10-05T04:54:31.748Z,99.99
2018-10-05T04:55:31.760Z,99.99
2018-10-05T04:56:31.739Z,99.90
2018-10-05T04:57:31.715Z,99.65
2018-10-05T04:58:31.719Z,99.04
2018-10-05T04:59:31.737Z,98.72
2018-10-05T05:00:31.680Z,98.68
2018-10-05T05:01:31.688Z,97.86
2018-10-05T05:02:31.657Z,97.34
2018-10-05T05:03:31.679Z,96.93
2018-10-05T05:04:31.635Z,95.90
2018-10-05T05:05:31.625Z,95.24
2018-10-05T05:06:31.615Z,94.93
2018-10-05T05:07:31.632Z,94.83
2018-10-05T05:08:31.607Z,94.62
2018-10-05T05:09:31.582Z,94.07
2018-10-05T05:10:31.573Z,93.86
2018-10-05T05:11:31.562Z,93.35
2018-10-05T05:12:31.551Z,93.55
2018-10-05T05:13:31.589Z,93.55
2018-10-05T05:14:31.534Z,93.44
2018-10-05T05:15:31.520Z,93.24
2018-10-05T05:16:31.512Z,93.51
2018-10-05T05:17:31.497Z,93.55
2018-10-05T05:18:31.501Z,93.44
2018-10-05T05:19:31.538Z,93.44
2018-10-05T05:20:31.465Z,93.55
2018-10-05T05:21:31.490Z,93.44
2018-10-05T05:22:31.445Z,92.89
2018-10-05T05:23:31.446Z,93.30
2018-10-05T05:24:31.425Z,92.27
2018-10-05T05:25:31.422Z,92.58
2018-10-05T05:26:31.426Z,92.93
2018-10-05T05:27:31.393Z,93.44
2018-10-05T05:28:31.393Z,93.30
2018-10-05T05:29:31.371Z,92.73
2018-10-05T05:30:31.357Z,93.55
2018-10-05T05:31:31.348Z,93.49
2018-10-05T05:32:31.358Z,93.12
2018-10-05T05:33:31.412Z,93.12
2018-10-05T05:34:31.317Z,93.68
2018-10-05T05:35:31.309Z,94.20
2018-10-05T05:36:31.295Z,93.41
2018-10-05T05:37:31.283Z,94.96
2018-10-05T05:38:31.307Z,95.21
2018-10-05T05:39:31.264Z,95.10
2018-10-05T05:40:31.252Z,95.42
2018-10-05T05:41:31.241Z,95.56
2018-10-05T05:42:31.230Z,94.95
2018-10-05T05:43:31.238Z,95.30
2018-10-05T05:44:31.237Z,96.02
2018-10-05T05:45:31.197Z,96.53
2018-10-05T05:46:31.188Z,96.84
2018-10-05T05:47:31.177Z,95.65
2018-10-05T05:48:31.178Z,95.80
2018-10-05T05:49:31.156Z,95.80
2018-10-05T05:50:31.175Z,96.31
2018-10-05T05:51:31.135Z,96.01
2018-10-05T05:52:31.125Z,98.44
2018-10-05T05:53:31.126Z,99.01
2018-10-05T05:54:31.149Z,98.24
2018-10-05T05:55:31.093Z,98.86
2018-10-05T05:56:31.104Z,98.61
2018-10-05T05:57:31.071Z,98.76
2018-10-05T05:58:31.075Z,98.97
2018-10-05T05:59:31.053Z,98.66
2018-10-05T06:00:31.037Z,98.24
2018-10-05T06:01:31.026Z,98.45
2018-10-05T06:02:31.048Z,97.83
2018-10-05T06:03:31.024Z,98.29
2018-10-05T06:04:30.995Z,98.24
2018-10-05T06:05:30.984Z,98.03
2018-10-05T06:06:30.973Z,98.35
2018-10-05T06:07:30.966Z,98.14
2018-10-05T06:08:30.990Z,98.45
2018-10-05T06:09:30.944Z,98.92
2018-10-05T06:10:30.931Z,98.88
2018-10-05T06:11:30.920Z,98.46
2018-10-05T06:12:30.912Z,98.77
2018-10-05T06:13:30.915Z,98.62
2018-10-05T06:14:30.897Z,98.42
2018-10-05T06:15:30.877Z,98.16
2018-10-05T06:16:30.893Z,97.34
2018-10-05T06:17:30.855Z,96.83
2018-10-05T06:18:30.862Z,95.90
2018-10-05T06:19:30.834Z,95.96
2018-10-05T06:20:30.846Z,95.86
2018-10-05T06:21:30.898Z,95.61
2018-10-05T06:22:30.946Z,95.40
2018-10-05T06:23:30.812Z,95.50
2018-10-05T06:24:30.781Z,94.78
2018-10-05T06:25:30.777Z,94.43
2018-10-05T06:26:30.780Z,93.67
2018-10-05T06:27:30.790Z,93.87
2018-10-05T06:28:30.754Z,93.52
2018-10-05T06:29:30.730Z,93.52
2018-10-05T06:30:30.728Z,92.40
2018-10-05T06:31:30.706Z,92.55
2018-10-05T06:32:30.710Z,92.16
2018-10-05T06:33:30.705Z,91.36
2018-10-05T06:34:30.676Z,86.98
2018-10-05T06:35:30.666Z,86.51
2018-10-05T06:36:30.653Z,87.53
2018-10-05T06:37:30.643Z,86.57
2018-10-05T06:38:30.686Z,88.31
2018-10-05T06:39:30.622Z,87.63
2018-10-05T06:40:30.623Z,87.76
2018-10-05T06:41:30.600Z,86.30
2018-10-05T06:42:30.649Z,85.06
2018-10-05T06:43:30.595Z,81.56
2018-10-05T06:44:30.585Z,79.03
2018-10-05T06:45:30.559Z,78.08
2018-10-05T06:46:30.547Z,76.92
2018-10-05T06:47:30.538Z,76.48
2018-10-05T06:48:30.542Z,74.41
2018-10-05T06:49:30.515Z,75.05
2018-10-05T06:50:30.518Z,73.09
2018-10-05T06:51:30.495Z,71.80
2018-10-05T06:52:30.485Z,71.67
2018-10-05T06:53:30.487Z,72.17
2018-10-05T06:54:30.467Z,71.03
2018-10-05T06:55:30.476Z,70.42
2018-10-05T06:56:30.441Z,70.32
2018-10-05T06:57:30.430Z,73.09
2018-10-05T06:58:30.435Z,69.71
2018-10-05T06:59:30.408Z,68.60
2018-10-05T07:00:30.397Z,69.92
2018-10-05T07:01:30.464Z,68.16
2018-10-05T07:02:30.376Z,68.80
2018-10-05T07:03:30.377Z,65.90
2018-10-05T07:04:30.358Z,67.99
2018-10-05T07:05:30.343Z,67.49
2018-10-05T07:06:30.332Z,66.55
2018-10-05T07:07:30.358Z,66.55
2018-10-05T07:08:30.325Z,66.91
2018-10-05T07:09:30.301Z,67.99
2018-10-05T07:10:30.289Z,69.61
2018-10-05T07:11:30.318Z,68.84
2018-10-05T07:12:30.268Z,70.15
2018-10-05T07:13:30.292Z,67.18
2018-10-05T07:14:30.247Z,69.71
2018-10-05T07:15:30.242Z,71.00
2018-10-05T07:16:30.228Z,70.25
2018-10-05T07:17:30.214Z,69.27
2018-10-05T07:18:30.217Z,68.56
2018-10-05T07:19:30.207Z,70.25
2018-10-05T07:20:30.196Z,68.60
2018-10-05T07:21:30.259Z,69.10
2018-10-05T07:22:30.249Z,67.08
2018-10-05T07:23:30.172Z,67.59
2018-10-05T07:24:30.150Z,71.23
2018-10-05T07:25:30.145Z,67.93
2018-10-05T07:26:30.121Z,66.89
2018-10-05T07:27:30.153Z,65.61
2018-10-05T07:28:30.268Z,65.64
2018-10-05T07:29:30.092Z,67.43
2018-10-05T07:30:30.092Z,67.39
2018-10-05T07:31:30.066Z,65.67
2018-10-05T07:32:30.074Z,65.81
2018-10-05T07:33:30.058Z,64.90
2018-10-05T07:34:30.031Z,66.35
2018-10-05T07:35:30.034Z,66.02
2018-10-05T07:36:30.029Z,65.64
2018-10-05T07:37:30.089Z,65.51
2018-10-05T07:38:30.011Z,64.73
2018-10-05T07:39:29.978Z,64.50
2018-10-05T07:40:29.968Z,67.50
2018-10-05T07:41:29.976Z,65.25
2018-10-05T07:42:29.949Z,62.40
2018-10-05T07:43:29.951Z,63.70
2018-10-05T07:44:29.927Z,62.44
2018-10-05T07:45:29.912Z,62.70
2018-10-05T07:46:29.906Z,63.37
2018-10-05T07:47:29.899Z,62.84
2018-10-05T07:48:29.915Z,61.70
2018-10-05T07:49:29.891Z,59.59
2018-10-05T07:50:29.860Z,59.79
2018-10-05T07:51:29.850Z,61.76
2018-10-05T07:52:29.838Z,61.55
2018-10-05T07:53:29.827Z,64.00
2018-10-05T07:54:29.832Z,64.44
2018-10-05T07:55:29.815Z,63.40
2018-10-05T07:56:29.816Z,62.19
2018-10-05T07:57:29.884Z,63.40
2018-10-05T07:58:29.790Z,62.09
2018-10-05T07:59:29.817Z,61.70
2018-10-05T08:00:29.765Z,62.48
2018-10-05T08:01:29.755Z,59.28
2018-10-05T08:02:29.740Z,59.63
2018-10-05T08:03:29.735Z,60.98
2018-10-05T08:04:29.722Z,57.68
2018-10-05T08:05:29.704Z,62.48
2018-10-05T08:06:29.705Z,60.13
2018-10-05T08:07:29.686Z,60.33
2018-10-05T08:08:29.679Z,58.93
2018-10-05T08:09:29.711Z,60.24
2018-10-05T08:10:29.647Z,61.98
2018-10-05T08:11:29.635Z,59.74
2018-10-05T08:12:29.629Z,58.70
2018-10-05T08:13:29.628Z,57.59
2018-10-05T08:14:29.638Z,58.35
2018-10-05T08:15:29.613Z,57.95
2018-10-05T08:16:29.585Z,60.69
2018-10-05T08:17:29.592Z,62.05
2018-10-05T08:18:29.563Z,59.20
2018-10-05T08:19:29.603Z,58.97
2018-10-05T08:20:29.583Z,58.89
2018-10-05T08:21:29.604Z,54.68
2018-10-05T08:22:29.543Z,55.99
2018-10-05T08:23:29.512Z,57.97
2018-10-05T08:24:29.513Z,58.97
2018-10-05T08:25:29.503Z,58.20
2018-10-05T08:26:29.522Z,60.21
2018-10-05T08:27:29.468Z,59.30
2018-10-05T08:28:29.467Z,57.29
2018-10-05T08:29:29.481Z,58.00
2018-10-05T08:30:29.454Z,56.86
2018-10-05T08:31:29.434Z,59.62
2018-10-05T08:32:29.422Z,58.99
2018-10-05T08:33:29.402Z,56.96
2018-10-05T08:34:29.444Z,56.40
2018-10-05T08:35:29.395Z,56.17
2018-10-05T08:36:29.363Z,55.87
2018-10-05T08:37:29.372Z,54.92
2018-10-05T08:38:29.369Z,52.94
2018-10-05T08:39:29.360Z,53.87
2018-10-05T08:40:29.342Z,55.70
2018-10-05T08:41:29.333Z,54.67
2018-10-05T08:42:29.329Z,53.42
2018-10-05T08:43:29.292Z,55.77
2018-10-05T08:44:29.304Z,55.74
2018-10-05T08:45:29.309Z,54.14
2018-10-05T08:46:29.259Z,53.57
2018-10-05T08:47:29.268Z,54.97
2018-10-05T08:48:29.238Z,54.57
2018-10-05T08:49:29.272Z,54.55
2018-10-05T08:50:29.218Z,53.82
2018-10-05T08:51:29.255Z,53.82
2018-10-05T08:52:29.207Z,51.79
2018-10-05T08:53:29.188Z,54.67
2018-10-05T08:54:29.188Z,51.50
2018-10-05T08:55:29.159Z,52.87
2018-10-05T08:56:29.165Z,51.17
2018-10-05T08:57:29.137Z,52.97
2018-10-05T08:58:29.145Z,54.39
2018-10-05T08:59:29.142Z,53.30
2018-10-05T09:00:29.172Z,52.24
2018-10-05T09:01:29.103Z,55.49
2018-10-05T09:02:29.086Z,52.99
2018-10-05T09:03:29.077Z,52.89
2018-10-05T09:04:29.081Z,52.49
2018-10-05T09:05:29.060Z,53.05
2018-10-05T09:06:29.043Z,54.05
2018-10-05T09:07:29.029Z,54.07
2018-10-05T09:08:29.024Z,56.98
2018-10-05T09:09:29.036Z,53.55
2018-10-05T09:10:29.022Z,53.57
2018-10-05T09:11:28.999Z,54.15
2018-10-05T09:12:28.990Z,55.75
2018-10-05T09:13:28.968Z,54.15
2018-10-05T09:14:28.975Z,56.85
2018-10-05T09:15:28.969Z,57.15
2018-10-05T09:16:28.954Z,55.75
2018-10-05T09:17:28.937Z,56.76
2018-10-05T09:18:28.922Z,56.40
2018-10-05T09:19:28.927Z,54.72
2018-10-05T09:20:28.901Z,53.37
2018-10-05T09:21:28.889Z,53.89
2018-10-05T09:22:28.936Z,54.90
2018-10-05T09:23:28.881Z,55.92
2018-10-05T09:24:28.870Z,54.10
2018-10-05T09:25:28.844Z,53.94
2018-10-05T09:26:28.829Z,53.29
2018-10-05T09:27:28.834Z,50.37
2018-10-05T09:28:28.812Z,49.95
2018-10-05T09:29:28.824Z,49.63
2018-10-05T09:30:28.815Z,49.15
2018-10-05T09:31:28.780Z,50.27
2018-10-05T09:32:28.791Z,50.77
2018-10-05T09:33:28.761Z,48.48
2018-10-05T09:34:28.765Z,50.22
2018-10-05T09:35:28.748Z,51.72
2018-10-05T09:36:28.736Z,52.04
2018-10-05T09:37:28.742Z,51.57
2018-10-05T09:38:28.715Z,53.89
2018-10-05T09:39:29.437Z,54.54
2018-10-05T09:40:28.719Z,51.50
2018-10-05T09:41:29.293Z,49.80
2018-10-05T09:42:28.662Z,51.62
2018-10-05T09:43:28.650Z,50.65
2018-10-05T09:44:28.657Z,50.84
2018-10-05T09:45:28.635Z,51.42
2018-10-05T09:46:28.617Z,51.82
2018-10-05T09:47:28.603Z,51.59
2018-10-05T09:48:28.599Z,52.87
2018-10-05T09:49:28.596Z,50.97
2018-10-05T09:50:28.570Z,50.07
2018-10-05T09:51:28.565Z,51.15
2018-10-05T09:52:28.659Z,50.62
2018-10-05T09:53:28.543Z,48.88
2018-10-05T09:54:28.544Z,51.12
2018-10-05T09:55:28.517Z,47.41
2018-10-05T09:56:28.508Z,49.10
2018-10-05T09:57:28.503Z,50.62
2018-10-05T09:58:28.488Z,50.27
2018-10-05T09:59:28.493Z,53.66
2018-10-05T10:00:28.471Z,52.19
2018-10-05T10:01:28.461Z,48.31
2018-10-05T10:02:28.449Z,50.35
2018-10-05T10:03:28.491Z,50.15
2018-10-05T10:04:28.466Z,50.47
2018-10-05T10:05:28.442Z,52.25
2018-10-05T10:06:28.409Z,48.31
2018-10-05T10:07:28.398Z,48.36
2018-10-05T10:08:28.491Z,48.36
2018-10-05T10:09:28.394Z,47.31
2018-10-05T10:10:28.361Z,48.93
2018-10-05T10:11:28.355Z,50.70
2018-10-05T10:12:28.342Z,48.73
2018-10-05T10:13:28.339Z,52.17
2018-10-05T10:14:28.351Z,49.13
2018-10-05T10:15:28.308Z,47.91
2018-10-05T10:16:28.300Z,50.60
2018-10-05T10:17:28.289Z,50.48
2018-10-05T10:18:28.276Z,47.64
2018-10-05T10:19:28.283Z,48.89
2018-10-05T10:20:28.259Z,46.13
2018-10-05T10:21:28.255Z,48.26
2018-10-05T10:22:28.294Z,51.40
2018-10-05T10:23:28.228Z,47.51
2018-10-05T10:24:28.237Z,49.23
2018-10-05T10:25:28.219Z,50.27
2018-10-05T10:26:28.200Z,51.95
2018-10-05T10:27:28.236Z,50.48
2018-10-05T10:28:28.224Z,49.04
2018-10-05T10:29:28.211Z,48.59
2018-10-05T10:30:28.174Z,51.05
2018-10-05T10:31:28.148Z,48.66
2018-10-05T10:32:28.143Z,48.47
2018-10-05T10:33:28.138Z,47.30
2018-10-05T10:34:28.182Z,49.86
2018-10-05T10:35:28.112Z,48.66
2018-10-05T10:36:28.098Z,49.16
2018-10-05T10:37:28.136Z,47.28
2018-10-05T10:38:28.073Z,47.95
2018-10-05T10:39:28.081Z,48.60
2018-10-05T10:40:28.052Z,45.42
2018-10-05T10:41:28.044Z,44.85
2018-10-05T10:42:28.067Z,45.67
2018-10-05T10:43:28.024Z,47.05
2018-10-05T10:44:28.027Z,45.39
2018-10-05T10:45:28.005Z,47.55
2018-10-05T10:46:27.996Z,46.66
2018-10-05T10:47:27.979Z,45.74
2018-10-05T10:48:27.978Z,45.52
2018-10-05T10:49:27.989Z,45.76
2018-10-05T10:50:27.949Z,46.86
2018-10-05T10:51:27.939Z,46.31
2018-10-05T10:52:27.928Z,48.79
2018-10-05T10:53:27.921Z,49.14
2018-10-05T10:54:27.928Z,47.23
2018-10-05T10:55:27.895Z,45.39
2018-10-05T10:56:27.890Z,52.37
2018-10-05T10:57:27.884Z,49.04
2018-10-05T10:58:27.887Z,46.64
2018-10-05T10:59:27.883Z,45.54
2018-10-05T11:00:27.860Z,45.76
2018-10-05T11:01:27.834Z,46.88
2018-10-05T11:02:27.825Z,45.68
2018-10-05T11:03:27.822Z,48.14
2018-10-05T11:04:27.856Z,46.33
2018-10-05T11:05:27.794Z,49.13
2018-10-05T11:06:27.785Z,49.08
2018-10-05T11:07:27.783Z,46.62
2018-10-05T11:08:27.763Z,48.08
2018-10-05T11:09:27.768Z,48.76
2018-10-05T11:10:27.736Z,48.31
2018-10-05T11:11:27.736Z,50.05
2018-10-05T11:12:27.727Z,49.35
2018-10-05T11:13:27.709Z,52.81
2018-10-05T11:14:27.713Z,51.25
2018-10-05T11:15:27.695Z,51.62
2018-10-05T11:16:27.681Z,49.98
2018-10-05T11:17:27.683Z,49.95
2018-10-05T11:18:27.654Z,50.68
2018-10-05T11:19:27.659Z,49.93
2018-10-05T11:20:27.641Z,50.33
2018-10-05T11:21:27.624Z,50.01
2018-10-05T11:22:27.618Z,49.51
2018-10-05T11:23:27.606Z,48.34
2018-10-05T11:24:27.605Z,48.88
2018-10-05T11:25:27.587Z,49.01
2018-10-05T11:26:27.582Z,52.25
2018-10-05T11:27:27.562Z,50.52
2018-10-05T11:28:27.553Z,50.43
2018-10-05T11:29:27.573Z,51.03
2018-10-05T11:30:27.541Z,49.95
2018-10-05T11:31:27.527Z,51.15
2018-10-05T11:32:27.514Z,51.05
2018-10-05T11:33:27.502Z,50.32
2018-10-05T11:34:27.500Z,49.95
2018-10-05T11:35:27.477Z,49.05
2018-10-05T11:36:27.465Z,50.25
2018-10-05T11:37:27.453Z,49.25
2018-10-05T11:38:27.439Z,49.33
2018-10-05T11:39:27.448Z,51.70
2018-10-05T11:40:27.429Z,50.87
2018-10-05T11:41:27.414Z,50.27
2018-10-05T11:42:27.399Z,48.28
2018-10-05T11:43:27.386Z,49.48
2018-10-05T11:44:27.399Z,48.43
2018-10-05T11:45:27.375Z,48.95
2018-10-05T11:46:27.424Z,50.77
2018-10-05T11:47:27.357Z,50.87
2018-10-05T11:48:27.336Z,52.14
2018-10-05T11:49:27.343Z,52.42
2018-10-05T11:50:27.316Z,52.09
2018-10-05T11:51:27.306Z,51.29
2018-10-05T11:52:27.339Z,51.05
2018-10-05T11:53:27.683Z,51.25
2018-10-05T11:54:27.395Z,51.05
2018-10-05T11:55:35.310Z,53.14
2018-10-05T11:56:27.249Z,50.73
2018-10-05T11:57:27.240Z,50.15
2018-10-05T11:58:27.231Z,54.14
2018-10-05T11:59:27.257Z,50.55
2018-10-05T12:00:27.256Z,52.87
2018-10-05T12:01:27.262Z,54.06
2018-10-05T12:02:27.293Z,53.86
2018-10-05T12:03:27.194Z,56.26
2018-10-05T12:04:27.199Z,53.69
2018-10-05T12:05:27.174Z,52.09
2018-10-05T12:06:27.166Z,52.52
2018-10-05T12:07:27.164Z,53.94
2018-10-05T12:08:27.122Z,55.49
2018-10-05T12:09:27.109Z,56.48
2018-10-05T12:10:27.112Z,55.46
2018-10-05T12:11:27.879Z,54.27
2018-10-05T12:12:27.075Z,52.37
2018-10-05T12:13:27.074Z,52.87
2018-10-05T12:14:27.082Z,52.00
2018-10-05T12:15:27.064Z,52.59
2018-10-05T12:16:27.038Z,52.39
2018-10-05T12:17:27.091Z,55.09
2018-10-05T12:18:27.060Z,52.99
2018-10-05T12:19:27.010Z,51.89
2018-10-05T12:20:27.048Z,53.59
2018-10-05T12:21:26.988Z,53.79
2018-10-05T12:22:26.971Z,53.19
2018-10-05T12:23:26.963Z,51.79
2018-10-05T12:24:26.950Z,52.52
2018-10-05T12:25:26.952Z,52.52
2018-10-05T12:26:26.953Z,53.84
2018-10-05T12:27:26.917Z,52.04
2018-10-05T12:28:26.911Z,54.02
2018-10-05T12:29:26.909Z,52.55
2018-10-05T12:30:26.937Z,52.55
2018-10-05T12:31:26.884Z,55.14
2018-10-05T12:32:26.864Z,54.02
2018-10-05T12:33:26.866Z,52.72
2018-10-05T12:34:26.863Z,56.21
2018-10-05T12:35:26.851Z,55.91
2018-10-05T12:36:26.823Z,52.92
2018-10-05T12:37:26.820Z,53.31
2018-10-05T12:38:26.809Z,52.42
2018-10-05T12:39:26.814Z,54.22
2018-10-05T12:40:26.802Z,53.61
2018-10-05T12:41:26.773Z,55.58
2018-10-05T12:42:26.761Z,57.78
2018-10-05T12:43:26.769Z,52.47
2018-10-05T12:44:26.739Z,53.96
2018-10-05T12:45:26.767Z,51.50
2018-10-05T12:46:26.728Z,54.09
2018-10-05T12:47:26.704Z,54.66
2018-10-05T12:48:26.694Z,51.70
2018-10-05T12:49:26.690Z,52.00
2018-10-05T12:50:26.691Z,53.22
2018-10-05T12:51:26.662Z,53.52
2018-10-05T12:52:26.657Z,52.72